sensor_id;sensor_type;location;lat;lon;timestamp;pressure;altitude;pressure_sealevel;temperature;humidity
76216;BME280;65010;50.190;18.930;2022-12-18T00:02:34;99758.59;;;-1.90;60.05
76216;BME280;65010;50.190;18.930;2022-12-18T00:05:46;99763.69;;;-1.88;59.39
76216;BME280;65010;50.190;18.930;2022-12-18T00:08:54;99772.38;;;-1.91;59.69
76216;BME280;65010;50.190;18.930;2022-12-18T00:12:04;99771.69;;;-1.96;59.86
76216;BME280;65010;50.190;18.930;2022-12-18T00:15:20;99785.03;;;-1.85;60.41
76216;BME280;65010;50.190;18.930;2022-12-18T00:18:25;99775.25;;;-1.77;59.93
76216;BME280;65010;50.190;18.930;2022-12-18T00:21:32;99783.81;;;-1.76;59.70
76216;BME280;65010;50.190;18.930;2022-12-18T00:24:39;99787.41;;;-1.80;59.22
76216;BME280;65010;50.190;18.930;2022-12-18T00:27:46;99784.06;;;-1.82;59.13
76216;BME280;65010;50.190;18.930;2022-12-18T00:30:59;99794.31;;;-1.81;59.62
76216;BME280;65010;50.190;18.930;2022-12-18T00:34:08;99789.88;;;-1.77;59.53
76216;BME280;65010;50.190;18.930;2022-12-18T00:37:16;99794.03;;;-1.73;59.58
76216;BME280;65010;50.190;18.930;2022-12-18T00:40:26;99798.09;;;-1.67;59.23
76216;BME280;65010;50.190;18.930;2022-12-18T00:43:31;99803.06;;;-1.63;59.70
76216;BME280;65010;50.190;18.930;2022-12-18T00:46:38;99810.66;;;-1.60;59.42
76216;BME280;65010;50.190;18.930;2022-12-18T00:49:44;99818.59;;;-1.64;58.94
76216;BME280;65010;50.190;18.930;2022-12-18T00:52:51;99818.97;;;-1.74;58.81
76216;BME280;65010;50.190;18.930;2022-12-18T00:55:57;99813.81;;;-1.74;59.03
76216;BME280;65010;50.190;18.930;2022-12-18T00:59:03;99818.81;;;-1.71;60.35
76216;BME280;65010;50.190;18.930;2022-12-18T01:02:13;99824.53;;;-1.62;59.78
76216;BME280;65010;50.190;18.930;2022-12-18T01:05:19;99838.97;;;-1.58;59.24
76216;BME280;65010;50.190;18.930;2022-12-18T01:08:26;99831.06;;;-1.54;59.70
76216;BME280;65010;50.190;18.930;2022-12-18T01:11:32;99845.38;;;-1.46;59.07
76216;BME280;65010;50.190;18.930;2022-12-18T01:14:38;99839.25;;;-1.44;58.85
76216;BME280;65010;50.190;18.930;2022-12-18T01:17:47;99834.00;;;-1.41;59.99
76216;BME280;65010;50.190;18.930;2022-12-18T01:20:53;99837.22;;;-1.36;58.80
76216;BME280;65010;50.190;18.930;2022-12-18T01:23:59;99837.88;;;-1.31;58.41
76216;BME280;65010;50.190;18.930;2022-12-18T01:27:05;99844.53;;;-1.25;57.55
76216;BME280;65010;50.190;18.930;2022-12-18T01:30:12;99839.38;;;-1.25;57.09
76216;BME280;65010;50.190;18.930;2022-12-18T01:33:20;99836.66;;;-1.22;57.24
76216;BME280;65010;50.190;18.930;2022-12-18T01:36:28;99828.28;;;-1.27;56.54
76216;BME280;65010;50.190;18.930;2022-12-18T01:39:35;99839.69;;;-1.33;56.53
76216;BME280;65010;50.190;18.930;2022-12-18T01:42:42;99840.75;;;-1.38;57.14
76216;BME280;65010;50.190;18.930;2022-12-18T01:45:47;99846.69;;;-1.36;56.85
76216;BME280;65010;50.190;18.930;2022-12-18T01:49:00;99852.69;;;-1.36;56.95
76216;BME280;65010;50.190;18.930;2022-12-18T01:52:06;99853.13;;;-1.46;56.42
76216;BME280;65010;50.190;18.930;2022-12-18T01:55:19;99862.66;;;-1.48;56.09
76216;BME280;65010;50.190;18.930;2022-12-18T01:58:37;99866.25;;;-1.53;56.83
76216;BME280;65010;50.190;18.930;2022-12-18T02:01:50;99870.31;;;-1.69;56.41
76216;BME280;65010;50.190;18.930;2022-12-18T02:04:58;99876.78;;;-1.81;56.59
76216;BME280;65010;50.190;18.930;2022-12-18T02:08:12;99879.53;;;-1.85;57.43
76216;BME280;65010;50.190;18.930;2022-12-18T02:11:39;99877.75;;;-1.83;57.66
76216;BME280;65010;50.190;18.930;2022-12-18T02:15:00;99887.81;;;-1.77;57.46
76216;BME280;65010;50.190;18.930;2022-12-18T02:18:20;99877.38;;;-1.74;57.52
76216;BME280;65010;50.190;18.930;2022-12-18T02:21:44;99885.78;;;-1.69;57.08
76216;BME280;65010;50.190;18.930;2022-12-18T02:25:12;99897.00;;;-1.70;56.59
76216;BME280;65010;50.190;18.930;2022-12-18T02:28:37;99902.47;;;-1.78;57.24
76216;BME280;65010;50.190;18.930;2022-12-18T02:31:53;99896.38;;;-1.77;57.65
76216;BME280;65010;50.190;18.930;2022-12-18T02:35:05;99898.97;;;-1.77;57.13
76216;BME280;65010;50.190;18.930;2022-12-18T02:38:16;99905.72;;;-1.74;57.12
76216;BME280;65010;50.190;18.930;2022-12-18T02:41:28;99903.34;;;-1.79;57.53
76216;BME280;65010;50.190;18.930;2022-12-18T02:44:46;99882.25;;;-1.90;57.55
76216;BME280;65010;50.190;18.930;2022-12-18T02:47:58;99911.91;;;-1.78;57.04
76216;BME280;65010;50.190;18.930;2022-12-18T02:51:14;99919.47;;;-1.74;58.06
76216;BME280;65010;50.190;18.930;2022-12-18T02:54:51;99930.44;;;-1.68;57.36
76216;BME280;65010;50.190;18.930;2022-12-18T02:58:14;99938.47;;;-1.76;57.42
76216;BME280;65010;50.190;18.930;2022-12-18T03:01:37;99941.81;;;-1.74;57.37
76216;BME280;65010;50.190;18.930;2022-12-18T03:04:54;99941.78;;;-1.73;57.58
76216;BME280;65010;50.190;18.930;2022-12-18T03:08:12;99948.78;;;-1.76;56.44
76216;BME280;65010;50.190;18.930;2022-12-18T03:11:26;99947.09;;;-1.77;57.91
76216;BME280;65010;50.190;18.930;2022-12-18T03:14:53;99948.63;;;-1.72;57.79
76216;BME280;65010;50.190;18.930;2022-12-18T03:18:10;99957.97;;;-1.69;57.91
76216;BME280;65010;50.190;18.930;2022-12-18T03:21:26;99951.81;;;-1.65;57.98
76216;BME280;65010;50.190;18.930;2022-12-18T03:24:37;99948.41;;;-1.65;57.13
76216;BME280;65010;50.190;18.930;2022-12-18T03:27:48;99952.53;;;-1.61;57.67
76216;BME280;65010;50.190;18.930;2022-12-18T03:31:02;99959.75;;;-1.47;59.49
76216;BME280;65010;50.190;18.930;2022-12-18T03:34:21;99940.38;;;-1.36;59.66
76216;BME280;65010;50.190;18.930;2022-12-18T03:37:39;99950.34;;;-1.26;58.09
76216;BME280;65010;50.190;18.930;2022-12-18T03:40:57;99953.75;;;-1.26;58.19
76216;BME280;65010;50.190;18.930;2022-12-18T03:44:31;99970.56;;;-1.16;58.50
76216;BME280;65010;50.190;18.930;2022-12-18T03:47:57;99967.97;;;-1.16;57.77
76216;BME280;65010;50.190;18.930;2022-12-18T03:51:20;99967.34;;;-1.21;57.90
76216;BME280;65010;50.190;18.930;2022-12-18T03:54:35;99955.56;;;-1.28;56.73
76216;BME280;65010;50.190;18.930;2022-12-18T03:57:51;99976.38;;;-1.33;56.34
76216;BME280;65010;50.190;18.930;2022-12-18T04:01:08;99980.06;;;-1.40;56.56
76216;BME280;65010;50.190;18.930;2022-12-18T04:04:19;99985.19;;;-1.38;56.75
76216;BME280;65010;50.190;18.930;2022-12-18T04:07:38;99985.78;;;-1.32;58.30
76216;BME280;65010;50.190;18.930;2022-12-18T04:10:45;99981.59;;;-1.34;56.54
76216;BME280;65010;50.190;18.930;2022-12-18T04:13:55;99989.94;;;-1.49;56.86
76216;BME280;65010;50.190;18.930;2022-12-18T04:17:06;99990.94;;;-1.54;58.72
76216;BME280;65010;50.190;18.930;2022-12-18T04:20:12;99999.16;;;-1.44;58.51
76216;BME280;65010;50.190;18.930;2022-12-18T04:23:22;99993.38;;;-1.51;56.93
76216;BME280;65010;50.190;18.930;2022-12-18T04:26:32;99999.38;;;-1.50;56.95
76216;BME280;65010;50.190;18.930;2022-12-18T04:30:08;100001.06;;;-1.49;57.23
76216;BME280;65010;50.190;18.930;2022-12-18T04:33:15;100008.03;;;-1.51;56.83
76216;BME280;65010;50.190;18.930;2022-12-18T04:36:26;100008.19;;;-1.56;57.11
76216;BME280;65010;50.190;18.930;2022-12-18T04:39:35;100019.22;;;-1.52;57.09
76216;BME280;65010;50.190;18.930;2022-12-18T04:42:47;100027.75;;;-1.50;58.13
76216;BME280;65010;50.190;18.930;2022-12-18T04:46:02;100030.09;;;-1.44;58.79
76216;BME280;65010;50.190;18.930;2022-12-18T04:49:08;100027.50;;;-1.44;57.24
76216;BME280;65010;50.190;18.930;2022-12-18T04:52:15;100025.38;;;-1.56;56.89
76216;BME280;65010;50.190;18.930;2022-12-18T04:55:28;100048.44;;;-1.52;57.38
76216;BME280;65010;50.190;18.930;2022-12-18T04:58:38;100048.38;;;-1.50;56.93
76216;BME280;65010;50.190;18.930;2022-12-18T05:01:45;100053.47;;;-1.48;58.05
76216;BME280;65010;50.190;18.930;2022-12-18T05:04:51;100062.00;;;-1.46;57.63
76216;BME280;65010;50.190;18.930;2022-12-18T05:07:57;100062.91;;;-1.47;57.26
76216;BME280;65010;50.190;18.930;2022-12-18T05:11:08;100056.28;;;-1.55;56.88
76216;BME280;65010;50.190;18.930;2022-12-18T05:14:17;100060.38;;;-1.49;57.83
76216;BME280;65010;50.190;18.930;2022-12-18T05:17:23;100067.09;;;-1.45;58.09
76216;BME280;65010;50.190;18.930;2022-12-18T05:20:29;100063.69;;;-1.45;57.27
76216;BME280;65010;50.190;18.930;2022-12-18T05:23:36;100071.44;;;-1.45;58.09
76216;BME280;65010;50.190;18.930;2022-12-18T05:26:45;100075.41;;;-1.37;59.49
76216;BME280;65010;50.190;18.930;2022-12-18T05:29:52;100073.50;;;-1.32;58.67
76216;BME280;65010;50.190;18.930;2022-12-18T05:32:57;100073.63;;;-1.35;57.50
76216;BME280;65010;50.190;18.930;2022-12-18T05:36:06;100072.88;;;-1.38;58.08
76216;BME280;65010;50.190;18.930;2022-12-18T05:39:13;100077.97;;;-1.37;58.66
76216;BME280;65010;50.190;18.930;2022-12-18T05:42:22;100084.66;;;-1.31;59.01
76216;BME280;65010;50.190;18.930;2022-12-18T05:45:28;100078.50;;;-1.27;58.60
76216;BME280;65010;50.190;18.930;2022-12-18T05:48:35;100092.44;;;-1.33;57.81
76216;BME280;65010;50.190;18.930;2022-12-18T05:51:40;100089.34;;;-1.42;57.18
76216;BME280;65010;50.190;18.930;2022-12-18T05:54:47;100087.75;;;-1.45;57.70
76216;BME280;65010;50.190;18.930;2022-12-18T05:57:55;100075.44;;;-1.38;59.47
76216;BME280;65010;50.190;18.930;2022-12-18T06:01:07;100088.53;;;-1.19;59.01
76216;BME280;65010;50.190;18.930;2022-12-18T06:04:15;100095.97;;;-1.12;59.42
76216;BME280;65010;50.190;18.930;2022-12-18T06:07:21;100097.53;;;-1.07;57.77
76216;BME280;65010;50.190;18.930;2022-12-18T06:10:27;100093.63;;;-1.18;57.20
76216;BME280;65010;50.190;18.930;2022-12-18T06:13:36;100099.22;;;-1.30;57.46
76216;BME280;65010;50.190;18.930;2022-12-18T06:16:43;100102.22;;;-1.41;57.93
76216;BME280;65010;50.190;18.930;2022-12-18T06:19:49;100102.81;;;-1.34;58.03
76216;BME280;65010;50.190;18.930;2022-12-18T06:22:55;100110.25;;;-1.25;58.65
76216;BME280;65010;50.190;18.930;2022-12-18T06:26:04;100117.16;;;-1.25;57.52
76216;BME280;65010;50.190;18.930;2022-12-18T06:29:12;100119.59;;;-1.22;58.73
76216;BME280;65010;50.190;18.930;2022-12-18T06:32:19;100122.00;;;-1.18;58.68
76216;BME280;65010;50.190;18.930;2022-12-18T06:35:24;100123.56;;;-1.14;58.40
76216;BME280;65010;50.190;18.930;2022-12-18T06:38:31;100125.44;;;-1.17;57.61
76216;BME280;65010;50.190;18.930;2022-12-18T06:41:37;100136.66;;;-1.18;57.29
76216;BME280;65010;50.190;18.930;2022-12-18T06:44:46;100137.47;;;-1.18;58.82
76216;BME280;65010;50.190;18.930;2022-12-18T06:47:52;100147.59;;;-1.12;58.57
76216;BME280;65010;50.190;18.930;2022-12-18T06:51:00;100146.56;;;-1.07;57.49
76216;BME280;65010;50.190;18.930;2022-12-18T06:54:06;100154.50;;;-1.12;57.49
76216;BME280;65010;50.190;18.930;2022-12-18T06:57:13;100155.06;;;-1.27;56.84
76216;BME280;65010;50.190;18.930;2022-12-18T07:00:21;100159.44;;;-1.29;57.82
76216;BME280;65010;50.190;18.930;2022-12-18T07:03:28;100167.25;;;-1.33;58.12
76216;BME280;65010;50.190;18.930;2022-12-18T07:06:34;100169.09;;;-1.36;57.36
76216;BME280;65010;50.190;18.930;2022-12-18T07:09:40;100169.34;;;-1.44;57.79
76216;BME280;65010;50.190;18.930;2022-12-18T07:12:46;100167.97;;;-1.54;58.22
76216;BME280;65010;50.190;18.930;2022-12-18T07:15:54;100176.59;;;-1.54;57.88
76216;BME280;65010;50.190;18.930;2022-12-18T07:19:00;100182.19;;;-1.67;57.58
76216;BME280;65010;50.190;18.930;2022-12-18T07:22:06;100186.59;;;-1.71;58.13
76216;BME280;65010;50.190;18.930;2022-12-18T07:25:12;100192.66;;;-1.72;57.84
76216;BME280;65010;50.190;18.930;2022-12-18T07:28:18;100200.53;;;-1.77;57.76
76216;BME280;65010;50.190;18.930;2022-12-18T07:31:28;100209.47;;;-1.87;58.70
76216;BME280;65010;50.190;18.930;2022-12-18T07:34:34;100202.59;;;-1.88;58.14
76216;BME280;65010;50.190;18.930;2022-12-18T07:37:40;100196.94;;;-1.98;57.66
76216;BME280;65010;50.190;18.930;2022-12-18T07:40:51;100206.91;;;-1.88;58.46
76216;BME280;65010;50.190;18.930;2022-12-18T07:43:56;100207.59;;;-1.82;58.16
76216;BME280;65010;50.190;18.930;2022-12-18T07:47:06;100198.75;;;-1.75;57.59
76216;BME280;65010;50.190;18.930;2022-12-18T07:50:13;100199.75;;;-1.79;57.86
76216;BME280;65010;50.190;18.930;2022-12-18T07:53:20;100208.06;;;-1.71;58.25
76216;BME280;65010;50.190;18.930;2022-12-18T07:56:25;100206.63;;;-1.53;58.82
76216;BME280;65010;50.190;18.930;2022-12-18T07:59:33;100201.41;;;-1.51;57.48
76216;BME280;65010;50.190;18.930;2022-12-18T08:02:41;100208.13;;;-1.45;57.56
76216;BME280;65010;50.190;18.930;2022-12-18T08:05:48;100206.16;;;-1.39;57.57
76216;BME280;65010;50.190;18.930;2022-12-18T08:08:54;100206.47;;;-1.23;57.83
76216;BME280;65010;50.190;18.930;2022-12-18T08:12:02;100208.63;;;-1.11;57.11
76216;BME280;65010;50.190;18.930;2022-12-18T08:15:17;100211.88;;;-1.05;55.94
76216;BME280;65010;50.190;18.930;2022-12-18T08:18:27;100214.97;;;-1.19;54.68
76216;BME280;65010;50.190;18.930;2022-12-18T08:21:32;100224.97;;;-1.35;55.10
76216;BME280;65010;50.190;18.930;2022-12-18T08:24:39;100213.84;;;-1.37;54.46
76216;BME280;65010;50.190;18.930;2022-12-18T08:27:47;100220.13;;;-1.46;54.96
76216;BME280;65010;50.190;18.930;2022-12-18T08:30:53;100225.97;;;-1.39;55.99
76216;BME280;65010;50.190;18.930;2022-12-18T08:34:01;100224.97;;;-1.35;55.29
76216;BME280;65010;50.190;18.930;2022-12-18T08:37:08;100231.69;;;-1.31;55.39
76216;BME280;65010;50.190;18.930;2022-12-18T08:40:14;100229.94;;;-1.31;55.36
76216;BME280;65010;50.190;18.930;2022-12-18T08:43:20;100241.84;;;-1.26;55.38
76216;BME280;65010;50.190;18.930;2022-12-18T08:46:41;100244.47;;;-1.28;55.46
76216;BME280;65010;50.190;18.930;2022-12-18T08:49:55;100247.81;;;-1.24;55.28
76216;BME280;65010;50.190;18.930;2022-12-18T08:53:02;100254.00;;;-1.30;55.33
76216;BME280;65010;50.190;18.930;2022-12-18T08:56:09;100254.91;;;-1.31;56.05
76216;BME280;65010;50.190;18.930;2022-12-18T08:59:17;100261.59;;;-1.25;56.36
76216;BME280;65010;50.190;18.930;2022-12-18T09:02:27;100250.50;;;-1.27;56.40
76216;BME280;65010;50.190;18.930;2022-12-18T09:05:36;100263.66;;;-1.35;55.40
76216;BME280;65010;50.190;18.930;2022-12-18T09:08:48;100263.84;;;-1.41;55.68
76216;BME280;65010;50.190;18.930;2022-12-18T09:11:57;100276.34;;;-1.29;55.88
76216;BME280;65010;50.190;18.930;2022-12-18T09:15:04;100281.28;;;-1.23;55.22
76216;BME280;65010;50.190;18.930;2022-12-18T09:18:16;100287.03;;;-1.15;55.01
76216;BME280;65010;50.190;18.930;2022-12-18T09:21:30;100285.22;;;-1.11;54.91
76216;BME280;65010;50.190;18.930;2022-12-18T09:24:38;100277.34;;;-1.08;54.32
76216;BME280;65010;50.190;18.930;2022-12-18T09:27:47;100276.38;;;-1.05;55.17
76216;BME280;65010;50.190;18.930;2022-12-18T09:30:52;100267.81;;;-1.06;54.85
76216;BME280;65010;50.190;18.930;2022-12-18T09:34:02;100282.94;;;-0.95;54.47
76216;BME280;65010;50.190;18.930;2022-12-18T09:37:10;100284.31;;;-0.85;54.17
76216;BME280;65010;50.190;18.930;2022-12-18T09:40:21;100283.31;;;-0.81;53.76
76216;BME280;65010;50.190;18.930;2022-12-18T09:43:35;100271.53;;;-0.90;53.95
76216;BME280;65010;50.190;18.930;2022-12-18T09:46:57;100273.91;;;-0.83;53.62
76216;BME280;65010;50.190;18.930;2022-12-18T09:50:23;100281.50;;;-0.79;52.97
76216;BME280;65010;50.190;18.930;2022-12-18T09:53:38;100280.38;;;-0.72;53.74
76216;BME280;65010;50.190;18.930;2022-12-18T09:56:49;100285.06;;;-0.58;54.18
76216;BME280;65010;50.190;18.930;2022-12-18T10:00:02;100281.88;;;-0.41;53.85
76216;BME280;65010;50.190;18.930;2022-12-18T10:03:19;100281.44;;;-0.28;53.53
76216;BME280;65010;50.190;18.930;2022-12-18T10:06:39;100273.25;;;-0.18;52.72
76216;BME280;65010;50.190;18.930;2022-12-18T10:10:04;100271.81;;;-0.03;52.58
76216;BME280;65010;50.190;18.930;2022-12-18T10:13:26;100271.63;;;0.03;51.76
76216;BME280;65010;50.190;18.930;2022-12-18T10:16:51;100275.28;;;-0.02;53.03
76216;BME280;65010;50.190;18.930;2022-12-18T10:20:13;100271.47;;;0.06;52.60
76216;BME280;65010;50.190;18.930;2022-12-18T10:23:37;100265.97;;;0.16;51.99
76216;BME280;65010;50.190;18.930;2022-12-18T10:26:59;100258.78;;;0.22;51.56
76216;BME280;65010;50.190;18.930;2022-12-18T10:30:20;100264.22;;;0.16;50.99
76216;BME280;65010;50.190;18.930;2022-12-18T10:33:29;100249.66;;;0.14;51.56
76216;BME280;65010;50.190;18.930;2022-12-18T10:36:38;100245.75;;;0.03;50.48
76216;BME280;65010;50.190;18.930;2022-12-18T10:39:45;100258.56;;;0.06;52.71
76216;BME280;65010;50.190;18.930;2022-12-18T10:43:04;100242.94;;;0.09;51.91
76216;BME280;65010;50.190;18.930;2022-12-18T10:46:14;100235.78;;;-0.06;51.42
76216;BME280;65010;50.190;18.930;2022-12-18T10:49:26;100243.19;;;0.03;52.78
76216;BME280;65010;50.190;18.930;2022-12-18T10:52:34;100236.19;;;0.27;52.44
76216;BME280;65010;50.190;18.930;2022-12-18T10:55:46;100244.25;;;0.62;51.54
76216;BME280;65010;50.190;18.930;2022-12-18T10:59:02;100239.53;;;0.93;50.68
76216;BME280;65010;50.190;18.930;2022-12-18T11:02:27;100243.78;;;1.14;49.27
76216;BME280;65010;50.190;18.930;2022-12-18T11:05:39;100239.06;;;1.43;48.74
76216;BME280;65010;50.190;18.930;2022-12-18T11:08:59;100228.03;;;1.76;48.38
76216;BME280;65010;50.190;18.930;2022-12-18T11:12:18;100214.69;;;2.02;48.37
76216;BME280;65010;50.190;18.930;2022-12-18T11:15:30;100201.38;;;2.27;47.72
76216;BME280;65010;50.190;18.930;2022-12-18T11:18:36;100205.13;;;2.57;47.02
76216;BME280;65010;50.190;18.930;2022-12-18T11:21:43;100211.63;;;2.65;46.13
76216;BME280;65010;50.190;18.930;2022-12-18T11:24:56;100197.19;;;2.60;46.91
76216;BME280;65010;50.190;18.930;2022-12-18T11:28:35;100204.06;;;2.26;43.93
76216;BME280;65010;50.190;18.930;2022-12-18T11:31:47;100218.09;;;1.85;45.01
76216;BME280;65010;50.190;18.930;2022-12-18T11:34:59;100193.19;;;1.45;47.22
76216;BME280;65010;50.190;18.930;2022-12-18T11:38:22;100232.13;;;1.43;47.03
76216;BME280;65010;50.190;18.930;2022-12-18T11:41:34;100220.47;;;1.33;47.75
76216;BME280;65010;50.190;18.930;2022-12-18T11:45:24;100232.66;;;1.31;46.90
76216;BME280;65010;50.190;18.930;2022-12-18T11:48:41;100228.53;;;1.27;46.39
76216;BME280;65010;50.190;18.930;2022-12-18T11:52:01;100239.72;;;1.27;47.96
76216;BME280;65010;50.190;18.930;2022-12-18T11:55:30;100235.53;;;1.44;47.10
76216;BME280;65010;50.190;18.930;2022-12-18T11:58:48;100245.28;;;1.39;47.41
76216;BME280;65010;50.190;18.930;2022-12-18T12:02:25;100235.75;;;1.39;47.30
76216;BME280;65010;50.190;18.930;2022-12-18T12:06:05;100241.00;;;1.38;46.75
76216;BME280;65010;50.190;18.930;2022-12-18T12:09:26;100251.00;;;1.26;46.32
76216;BME280;65010;50.190;18.930;2022-12-18T12:12:57;100239.53;;;0.93;47.29
76216;BME280;65010;50.190;18.930;2022-12-18T12:16:20;100221.28;;;0.75;47.19
76216;BME280;65010;50.190;18.930;2022-12-18T12:19:44;100247.28;;;0.72;47.15
76216;BME280;65010;50.190;18.930;2022-12-18T12:23:07;100253.66;;;0.43;46.90
76216;BME280;65010;50.190;18.930;2022-12-18T12:26:37;100250.78;;;0.28;49.46
76216;BME280;65010;50.190;18.930;2022-12-18T12:30:03;100243.28;;;0.22;50.25
76216;BME280;65010;50.190;18.930;2022-12-18T12:33:36;100259.75;;;0.20;48.92
76216;BME280;65010;50.190;18.930;2022-12-18T12:37:01;100265.94;;;-0.06;49.73
76216;BME280;65010;50.190;18.930;2022-12-18T12:40:27;100262.72;;;-0.13;50.91
76216;BME280;65010;50.190;18.930;2022-12-18T12:44:00;100259.28;;;-0.12;51.78
76216;BME280;65010;50.190;18.930;2022-12-18T12:47:16;100265.41;;;-0.15;51.12
76216;BME280;65010;50.190;18.930;2022-12-18T12:50:34;100260.63;;;-0.25;50.78
76216;BME280;65010;50.190;18.930;2022-12-18T12:53:42;100268.28;;;-0.22;52.61
76216;BME280;65010;50.190;18.930;2022-12-18T12:56:58;100268.38;;;-0.25;52.19
76216;BME280;65010;50.190;18.930;2022-12-18T13:00:16;100275.97;;;-0.21;52.64
76216;BME280;65010;50.190;18.930;2022-12-18T13:03:41;100270.63;;;-0.16;53.44
76216;BME280;65010;50.190;18.930;2022-12-18T13:07:01;100276.63;;;-0.16;52.35
76216;BME280;65010;50.190;18.930;2022-12-18T13:10:25;100275.78;;;-0.16;53.41
76216;BME280;65010;50.190;18.930;2022-12-18T13:13:51;100272.25;;;-0.14;53.29
76216;BME280;65010;50.190;18.930;2022-12-18T13:17:14;100262.47;;;-0.29;52.83
76216;BME280;65010;50.190;18.930;2022-12-18T13:20:38;100276.34;;;-0.32;54.11
76216;BME280;65010;50.190;18.930;2022-12-18T13:23:56;100287.53;;;-0.31;52.43
76216;BME280;65010;50.190;18.930;2022-12-18T13:27:46;100298.16;;;-0.39;53.52
76216;BME280;65010;50.190;18.930;2022-12-18T13:31:07;100292.44;;;-0.47;53.01
76216;BME280;65010;50.190;18.930;2022-12-18T13:34:16;100289.16;;;-0.52;53.87
76216;BME280;65010;50.190;18.930;2022-12-18T13:37:51;100293.50;;;-0.53;53.55
76216;BME280;65010;50.190;18.930;2022-12-18T13:41:01;100296.41;;;-0.62;52.31
76216;BME280;65010;50.190;18.930;2022-12-18T13:44:17;100300.81;;;-0.65;53.05
76216;BME280;65010;50.190;18.930;2022-12-18T13:47:36;100294.28;;;-0.76;51.47
76216;BME280;65010;50.190;18.930;2022-12-18T13:50:43;100301.22;;;-0.76;53.20
76216;BME280;65010;50.190;18.930;2022-12-18T13:53:59;100290.97;;;-0.79;52.67
76216;BME280;65010;50.190;18.930;2022-12-18T13:57:26;100291.72;;;-0.76;53.64
76216;BME280;65010;50.190;18.930;2022-12-18T14:00:35;100292.63;;;-0.77;53.03
76216;BME280;65010;50.190;18.930;2022-12-18T14:03:49;100288.50;;;-0.82;52.33
76216;BME280;65010;50.190;18.930;2022-12-18T14:07:01;100288.91;;;-0.93;50.85
76216;BME280;65010;50.190;18.930;2022-12-18T14:10:15;100285.09;;;-1.08;51.36
76216;BME280;65010;50.190;18.930;2022-12-18T14:13:45;100290.47;;;-1.14;52.42
76216;BME280;65010;50.190;18.930;2022-12-18T14:16:52;100289.00;;;-1.21;52.70
76216;BME280;65010;50.190;18.930;2022-12-18T14:20:02;100283.53;;;-1.39;52.44
76216;BME280;65010;50.190;18.930;2022-12-18T14:23:25;100291.28;;;-1.39;53.22
76216;BME280;65010;50.190;18.930;2022-12-18T14:26:34;100295.72;;;-1.44;53.24
76216;BME280;65010;50.190;18.930;2022-12-18T14:29:43;100293.41;;;-1.52;52.94
76216;BME280;65010;50.190;18.930;2022-12-18T14:33:00;100288.53;;;-1.61;53.46
76216;BME280;65010;50.190;18.930;2022-12-18T14:36:18;100283.03;;;-1.77;53.52
76216;BME280;65010;50.190;18.930;2022-12-18T14:39:27;100285.59;;;-1.77;53.87
76216;BME280;65010;50.190;18.930;2022-12-18T14:42:35;100292.34;;;-1.73;53.56
76216;BME280;65010;50.190;18.930;2022-12-18T14:45:44;100286.50;;;-1.78;54.37
76216;BME280;65010;50.190;18.930;2022-12-18T14:48:52;100294.16;;;-1.76;53.79
76216;BME280;65010;50.190;18.930;2022-12-18T14:52:06;100290.06;;;-1.82;54.22
76216;BME280;65010;50.190;18.930;2022-12-18T14:55:31;100290.31;;;-1.89;53.66
76216;BME280;65010;50.190;18.930;2022-12-18T14:58:45;100272.31;;;-2.21;52.54
76216;BME280;65010;50.190;18.930;2022-12-18T15:02:01;100323.41;;;-2.05;52.10
76216;BME280;65010;50.190;18.930;2022-12-18T15:05:26;100319.44;;;-2.17;51.75
76216;BME280;65010;50.190;18.930;2022-12-18T15:08:43;100318.25;;;-2.35;51.54
76216;BME280;65010;50.190;18.930;2022-12-18T15:11:58;100318.09;;;-2.60;51.77
76216;BME280;65010;50.190;18.930;2022-12-18T15:19:02;100310.41;;;-2.95;51.37
76216;BME280;65010;50.190;18.930;2022-12-18T15:22:21;100339.50;;;-2.93;50.87
76216;BME280;65010;50.190;18.930;2022-12-18T15:25:37;100332.16;;;-3.06;51.18
76216;BME280;65010;50.190;18.930;2022-12-18T15:28:51;100333.88;;;-3.07;51.84
76216;BME280;65010;50.190;18.930;2022-12-18T15:32:05;100328.88;;;-3.13;51.22
76216;BME280;65010;50.190;18.930;2022-12-18T15:35:25;100344.47;;;-3.19;51.36
76216;BME280;65010;50.190;18.930;2022-12-18T15:38:33;100350.56;;;-3.23;52.51
76216;BME280;65010;50.190;18.930;2022-12-18T15:41:45;100348.03;;;-3.25;51.81
76216;BME280;65010;50.190;18.930;2022-12-18T15:45:11;100348.13;;;-3.29;52.27
76216;BME280;65010;50.190;18.930;2022-12-18T15:48:22;100338.84;;;-3.35;51.85
76216;BME280;65010;50.190;18.930;2022-12-18T15:51:34;100353.59;;;-3.43;51.24
76216;BME280;65010;50.190;18.930;2022-12-18T15:54:41;100351.84;;;-3.41;52.54
76216;BME280;65010;50.190;18.930;2022-12-18T15:58:06;100355.31;;;-3.42;53.39
76216;BME280;65010;50.190;18.930;2022-12-18T16:01:19;100362.22;;;-3.44;52.10
76216;BME280;65010;50.190;18.930;2022-12-18T16:04:28;100362.25;;;-3.47;52.13
76216;BME280;65010;50.190;18.930;2022-12-18T16:07:36;100363.09;;;-3.47;51.76
76216;BME280;65010;50.190;18.930;2022-12-18T16:10:45;100359.84;;;-3.54;51.39
76216;BME280;65010;50.190;18.930;2022-12-18T16:13:53;100359.03;;;-3.56;51.43
76216;BME280;65010;50.190;18.930;2022-12-18T16:17:02;100374.28;;;-3.48;52.05
76216;BME280;65010;50.190;18.930;2022-12-18T16:20:12;100380.25;;;-3.47;51.69
76216;BME280;65010;50.190;18.930;2022-12-18T16:23:25;100375.16;;;-3.49;50.80
76216;BME280;65010;50.190;18.930;2022-12-18T16:26:34;100377.78;;;-3.51;51.47
76216;BME280;65010;50.190;18.930;2022-12-18T16:29:44;100377.84;;;-3.54;51.94
76216;BME280;65010;50.190;18.930;2022-12-18T16:32:54;100371.03;;;-3.56;51.67
76216;BME280;65010;50.190;18.930;2022-12-18T16:36:03;100365.09;;;-3.58;53.20
76216;BME280;65010;50.190;18.930;2022-12-18T16:39:10;100373.63;;;-3.56;53.21
76216;BME280;65010;50.190;18.930;2022-12-18T16:42:21;100360.75;;;-3.56;53.88
76216;BME280;65010;50.190;18.930;2022-12-18T16:45:33;100359.13;;;-3.59;53.71